Time;durP1;ratioP1;P1;durP2;ratioP2;P2;SDS_P1;SDS_P2;PMS_P1;PMS_P2;Temp;Humidity;BMP_temperature;BMP_pressure;BME280_temperature;BME280_humidity;BME280_pressure;Samples;Min_cycle;Max_cycle;Signal;HPM_P1;HPM_P2
2021/08/14 00:01:03;;;;;;;;;;;;;;;29.15;37.54;101426.66;5098200;28;997;-37
2021/08/14 00:03:30;;;;;;;;;;;;;;;29.20;37.09;101426.97;5077352;28;857;-37
2021/08/14 00:05:55;;;;;;;;;;;;;;;29.22;37.21;101435.75;5077090;28;1002;-38
2021/08/14 00:08:20;;;;;;;;;;;;;;;29.21;37.39;101434.09;5078871;28;790;-36
2021/08/14 00:10:45;;;;;;;;;;;;;;;29.20;37.28;101437.81;5078303;28;1890;-38
2021/08/14 00:13:11;;;;;;;;;;;;;;;29.23;37.29;101439.31;5094865;28;1103;-36
2021/08/14 00:15:36;;;;;;;;;;;;;;;29.22;37.18;101435.75;5097864;28;522;-38
2021/08/14 00:18:01;;;;;;;;;;;;;;;29.28;37.25;101434.22;5082198;28;974;-37
2021/08/14 00:20:27;;;;;;;;;;;;;;;29.15;37.18;101430.22;5077941;28;717;-36
2021/08/14 00:22:52;;;;;;;;;;;;;;;29.18;37.32;101435.28;5078195;28;731;-37
2021/08/14 00:25:17;;;;;;;;;;;;;;;29.25;37.12;101431.84;5077887;28;727;-36
2021/08/14 00:27:42;;;;;;;;;;;;;;;29.11;37.65;101436.19;5078096;28;858;-41
2021/08/14 00:30:08;;;;;;;;;;;;;;;29.23;37.16;101439.31;5077960;28;1898;-36
2021/08/14 00:32:33;;;;;;;;;;;;;;;29.26;37.47;101434.38;5090213;28;1133;-36
2021/08/14 00:34:58;;;;;;;;;;;;;;;29.21;37.44;101437.63;5097601;28;803;-37
2021/08/14 00:37:24;;;;;;;;;;;;;;;29.29;37.10;101425.03;5098329;28;767;-38
2021/08/14 00:39:50;;;;;;;;;;;;;;;29.35;37.37;101432.44;5097889;28;827;-38
2021/08/14 00:42:15;;;;;;;;;;;;;;;29.30;37.46;101429.44;5097445;28;1460;-37
2021/08/14 00:44:40;;;;;;;;;;;;;;;29.30;37.36;101430.28;5098137;28;759;-35
2021/08/14 00:47:06;;;;;;;;;;;;;;;29.30;37.48;101435.69;5086836;28;1519;-36
2021/08/14 00:49:31;;;;;;;;;;;;;;;29.32;37.44;101430.94;5077239;28;1909;-35
2021/08/14 00:51:56;;;;;;;;;;;;;;;29.29;37.50;101438.59;5077108;28;771;-37
2021/08/14 00:54:22;;;;;;;;;;;;;;;29.31;37.56;101439.25;5077305;28;839;-35
2021/08/14 00:56:47;;;;;;;;;;;;;;;29.25;37.33;101443.53;5077313;28;810;-38
2021/08/14 00:59:12;;;;;;;;;;;;;;;29.33;37.44;101434.47;5076251;28;775;-36
2021/08/14 01:01:38;;;;;;;;;;;;;;;29.38;37.07;101429.38;5075718;28;1014;-37
2021/08/14 01:04:03;;;;;;;;;;;;;;;29.31;37.05;101431.94;5076845;28;811;-37
2021/08/14 01:06:28;;;;;;;;;;;;;;;29.33;37.22;101427.19;5076958;28;800;-36
2021/08/14 01:08:54;;;;;;;;;;;;;;;29.36;37.15;101425.16;5077557;28;805;-36
2021/08/14 01:11:19;;;;;;;;;;;;;;;29.31;37.38;101429.25;5076398;28;1898;-36
2021/08/14 01:13:44;;;;;;;;;;;;;;;29.33;37.48;101429.91;5077121;28;759;-36
2021/08/14 01:16:10;;;;;;;;;;;;;;;29.33;37.25;101423.63;5079024;28;970;-36
2021/08/14 01:18:39;;;;;;;;;;;;;;;29.28;37.36;101426.09;5096808;28;784;-36
2021/08/14 01:21:05;;;;;;;;;;;;;;;29.24;37.65;101422.03;5097145;28;824;-35
2021/08/14 01:23:30;;;;;;;;;;;;;;;29.35;37.48;101421.59;5097272;28;819;-36
2021/08/14 01:26:02;;;;;;;;;;;;;;;29.36;37.53;101419.75;5097131;28;794;-34
2021/08/14 01:28:28;;;;;;;;;;;;;;;29.36;37.51;101412.47;5096312;28;750;-35
2021/08/14 01:30:54;;;;;;;;;;;;;;;29.34;37.52;101415.31;5096932;28;1901;-35
2021/08/14 01:33:19;;;;;;;;;;;;;;;29.29;37.71;101417.78;5096510;28;949;-36
2021/08/14 01:35:45;;;;;;;;;;;;;;;29.31;37.64;101418.41;5095879;28;775;-37
2021/08/14 01:38:11;;;;;;;;;;;;;;;29.36;37.59;101412.47;5097226;28;822;-35
2021/08/14 01:40:36;;;;;;;;;;;;;;;29.41;37.22;101401.88;5096439;28;823;-35
2021/08/14 01:43:01;;;;;;;;;;;;;;;29.31;37.64;101401.31;5096784;28;803;-35
2021/08/14 01:45:27;;;;;;;;;;;;;;;29.32;37.55;101403.84;5097224;28;739;-35
2021/08/14 01:47:52;;;;;;;;;;;;;;;29.34;37.43;101403.66;5080787;28;1635;-35
2021/08/14 01:50:17;;;;;;;;;;;;;;;29.37;37.26;101397.88;5076400;28;1906;-36
2021/08/14 01:52:42;;;;;;;;;;;;;;;29.33;37.35;101405.53;5075388;28;1386;-35
2021/08/14 01:55:08;;;;;;;;;;;;;;;29.35;37.22;101399.91;5076046;28;771;-35
2021/08/14 01:57:33;;;;;;;;;;;;;;;29.40;37.26;101402.06;5076606;28;783;-36
2021/08/14 01:59:58;;;;;;;;;;;;;;;29.41;37.24;101401.88;5076581;28;773;-35
2021/08/14 02:02:24;;;;;;;;;;;;;;;29.43;37.29;101409.84;5087048;28;1010;-35
2021/08/14 02:04:49;;;;;;;;;;;;;;;29.48;37.04;101406.59;5096798;28;767;-36
2021/08/14 02:07:14;;;;;;;;;;;;;;;29.43;37.38;101409.84;5096847;28;794;-38
2021/08/14 02:09:39;;;;;;;;;;;;;;;29.39;37.50;101411.25;5095758;28;1918;-37
2021/08/14 02:12:05;;;;;;;;;;;;;;;29.40;37.69;101402.94;5088961;28;1194;-36
2021/08/14 02:14:30;;;;;;;;;;;;;;;29.50;37.32;101393.69;5076227;28;771;-35
2021/08/14 02:16:55;;;;;;;;;;;;;;;29.42;37.29;101397.31;5082934;28;1113;-36
2021/08/14 02:19:21;;;;;;;;;;;;;;;29.45;37.30;101392.38;5097028;28;778;-36
2021/08/14 02:21:46;;;;;;;;;;;;;;;29.38;37.44;101402.25;5095891;28;826;-37
2021/08/14 02:24:11;;;;;;;;;;;;;;;29.37;37.71;101397.03;5096001;28;854;-36
2021/08/14 02:26:37;;;;;;;;;;;;;;;29.48;37.32;101391.16;5096948;28;807;-36
2021/08/14 02:29:02;;;;;;;;;;;;;;;29.37;37.57;101394.31;5096701;28;851;-37
2021/08/14 02:31:27;;;;;;;;;;;;;;;29.38;37.68;101387.88;5092374;28;1959;-34
2021/08/14 02:33:53;;;;;;;;;;;;;;;29.36;37.68;101395.34;5075639;28;742;-36
2021/08/14 02:36:19;;;;;;;;;;;;;;;29.28;37.66;101390.84;5076437;28;806;-37
2021/08/14 02:38:44;;;;;;;;;;;;;;;29.30;37.57;101384.22;5077103;28;811;-36
2021/08/14 02:41:09;;;;;;;;;;;;;;;29.25;37.64;101381.22;5080083;28;755;-35
2021/08/14 02:43:35;;;;;;;;;;;;;;;29.28;37.74;101383.53;5079985;28;760;-36
2021/08/14 02:46:01;;;;;;;;;;;;;;;29.25;37.67;101383.91;5080038;28;789;-38
2021/08/14 02:48:29;;;;;;;;;;;;;;;29.38;37.61;101380.59;5098837;28;1224;-39
2021/08/14 02:50:54;;;;;;;;;;;;;;;29.27;37.78;101379.16;5100118;28;1971;-36
2021/08/14 02:53:19;;;;;;;;;;;;;;;29.34;37.34;101379.28;5099713;28;823;-36
2021/08/14 02:55:45;;;;;;;;;;;;;;;29.38;37.38;101386.00;5100193;28;806;-36
2021/08/14 02:58:10;;;;;;;;;;;;;;;29.28;37.39;101383.53;5099981;28;810;-36
2021/08/14 03:00:35;;;;;;;;;;;;;;;29.32;37.33;101382.16;5100131;28;815;-36
2021/08/14 03:03:01;;;;;;;;;;;;;;;29.29;37.29;101393.38;5083303;28;970;-37
2021/08/14 03:05:26;;;;;;;;;;;;;;;29.25;37.50;101383.06;5079733;28;831;-35
2021/08/14 03:07:51;;;;;;;;;;;;;;;29.22;37.91;101389.69;5079750;28;743;-36
2021/08/14 03:10:17;;;;;;;;;;;;;;;29.38;37.41;101385.19;5079252;28;1906;-35
2021/08/14 03:12:42;;;;;;;;;;;;;;;29.36;37.69;101382.66;5092367;28;1139;-36
2021/08/14 03:15:08;;;;;;;;;;;;;;;29.38;37.62;101383.28;5099742;28;806;-36
2021/08/14 03:17:33;;;;;;;;;;;;;;;29.19;37.44;101388.22;5086524;28;949;-37
2021/08/14 03:19:59;;;;;;;;;;;;;;;28.03;35.88;101381.50;5079226;28;735;-34
2021/08/14 03:22:24;;;;;;;;;;;;;;;27.24;37.45;101381.06;5079551;28;783;-43
2021/08/14 03:24:50;;;;;;;;;;;;;;;26.84;37.98;101380.81;5092852;28;1087;-35
2021/08/14 03:27:15;;;;;;;;;;;;;;;26.78;37.91;101379.66;5099231;28;840;-43
2021/08/14 03:29:41;;;;;;;;;;;;;;;26.53;37.83;101387.69;5099113;28;1961;-34
2021/08/14 03:32:06;;;;;;;;;;;;;;;26.71;38.00;101386.72;5089738;28;1096;-36
2021/08/14 03:34:31;;;;;;;;;;;;;;;26.59;38.20;101386.16;5079262;28;708;-35
2021/08/14 03:36:57;;;;;;;;;;;;;;;26.39;38.52;101386.44;5079086;28;867;-36
2021/08/14 03:39:22;;;;;;;;;;;;;;;26.38;38.84;101387.47;5078279;28;786;-36
2021/08/14 03:41:48;;;;;;;;;;;;;;;26.33;39.41;101388.94;5078655;28;800;-34
2021/08/14 03:44:13;;;;;;;;;;;;;;;26.44;39.25;101395.91;5078821;28;768;-35
2021/08/14 03:46:39;;;;;;;;;;;;;;;25.59;40.49;101395.53;5082905;28;947;-34
2021/08/14 03:49:04;;;;;;;;;;;;;;;25.90;40.15;101392.41;5098776;28;1181;-43
2021/08/14 03:51:29;;;;;;;;;;;;;;;25.75;39.96;101395.69;5097693;28;1913;-33
2021/08/14 03:53:55;;;;;;;;;;;;;;;24.84;42.17;101398.34;5098717;28;779;-30
2021/08/14 03:56:20;;;;;;;;;;;;;;;24.01;44.52;101387.41;5098683;28;865;-32
2021/08/14 03:58:46;;;;;;;;;;;;;;;23.20;46.85;101390.34;5098854;28;891;-44
2021/08/14 04:01:11;;;;;;;;;;;;;;;23.23;47.31;101386.50;5097093;28;965;-35
2021/08/14 04:03:36;;;;;;;;;;;;;;;23.95;46.09;101390.69;5078710;28;1424;-38
2021/08/14 04:06:02;;;;;;;;;;;;;;;24.72;44.03;101400.44;5083597;28;758;-35
2021/08/14 04:08:27;;;;;;;;;;;;;;;24.98;43.18;101394.34;5078245;28;760;-35
2021/08/14 04:10:52;;;;;;;;;;;;;;;25.19;42.88;101394.03;5081622;28;1913;-35
2021/08/14 04:13:17;;;;;;;;;;;;;;;25.70;41.65;101407.94;5080012;28;1126;-32
2021/08/14 04:15:43;;;;;;;;;;;;;;;26.03;41.05;101403.63;5078548;28;785;-42
2021/08/14 04:18:08;;;;;;;;;;;;;;;26.12;40.83;101407.22;5077617;28;867;-34
2021/08/14 04:20:33;;;;;;;;;;;;;;;26.18;40.40;101394.91;5078147;28;847;-34
2021/08/14 04:22:59;;;;;;;;;;;;;;;26.25;40.24;101398.66;5078025;28;825;-34
2021/08/14 04:25:24;;;;;;;;;;;;;;;26.33;40.17;101400.59;5078158;28;775;-34
2021/08/14 04:27:49;;;;;;;;;;;;;;;26.35;39.91;101401.28;5077950;28;862;-32
2021/08/14 04:30:15;;;;;;;;;;;;;;;26.42;39.62;101401.47;5077551;28;1890;-41
2021/08/14 04:32:40;;;;;;;;;;;;;;;26.51;39.54;101399.63;5091512;28;997;-33
2021/08/14 04:35:06;;;;;;;;;;;;;;;26.68;39.04;101397.84;5097780;28;699;-37
2021/08/14 04:37:32;;;;;;;;;;;;;;;26.69;38.71;101404.94;5097961;28;811;-35
2021/08/14 04:39:57;;;;;;;;;;;;;;;26.76;39.07;101400.56;5097787;28;808;-35
2021/08/14 04:42:22;;;;;;;;;;;;;;;26.89;38.08;101397.38;5097895;28;772;-35
2021/08/14 04:44:47;;;;;;;;;;;;;;;26.57;38.79;101404.41;5097792;28;851;-33
2021/08/14 04:47:13;;;;;;;;;;;;;;;26.75;38.57;101408.81;5087583;28;1264;-35
2021/08/14 04:49:38;;;;;;;;;;;;;;;26.92;38.67;101415.13;5077540;28;1970;-43
2021/08/14 04:52:03;;;;;;;;;;;;;;;26.84;38.45;101407.00;5077720;28;791;-34
2021/08/14 04:54:29;;;;;;;;;;;;;;;26.99;38.03;101410.72;5077322;28;821;-35
2021/08/14 04:56:54;;;;;;;;;;;;;;;27.28;37.82;101416.69;5077164;28;787;-44
2021/08/14 04:59:19;;;;;;;;;;;;;;;27.35;37.52;101404.22;5077553;28;886;-36
2021/08/14 05:01:44;;;;;;;;;;;;;;;27.31;37.02;101397.44;5082695;28;954;-37
2021/08/14 05:04:10;;;;;;;;;;;;;;;27.17;39.01;101403.53;5097793;28;854;-34
2021/08/14 05:06:37;;;;;;;;;;;;;;;23.97;44.24;101396.78;5097595;28;822;-33
2021/08/14 05:09:02;;;;;;;;;;;;;;;22.71;46.83;101388.41;5097204;28;739;-34
2021/08/14 05:11:28;;;;;;;;;;;;;;;22.48;46.66;101387.75;5094297;28;1902;-36
2021/08/14 05:13:53;;;;;;;;;;;;;;;21.82;48.09;101392.53;5077422;28;723;-39
2021/08/14 05:16:18;;;;;;;;;;;;;;;21.52;48.31;101387.78;5078658;28;955;-34
2021/08/14 05:18:44;;;;;;;;;;;;;;;21.35;48.78;101389.22;5097879;28;788;-43
2021/08/14 05:21:09;;;;;;;;;;;;;;;21.26;49.04;101392.66;5096931;28;815;-34
2021/08/14 05:23:34;;;;;;;;;;;;;;;21.07;49.61;101396.84;5096909;28;1630;-31
2021/08/14 05:26:00;;;;;;;;;;;;;;;22.89;48.76;101406.53;5096874;28;849;-32
2021/08/14 05:28:25;;;;;;;;;;;;;;;24.94;42.50;101403.72;5097447;28;811;-33
2021/08/14 05:30:50;;;;;;;;;;;;;;;25.62;41.65;101404.16;5096294;28;1905;-39
2021/08/14 05:33:15;;;;;;;;;;;;;;;25.81;43.22;101410.38;5078439;28;942;-41
2021/08/14 05:35:41;;;;;;;;;;;;;;;22.75;45.99;101405.91;5076938;28;774;-33
2021/08/14 05:38:06;;;;;;;;;;;;;;;21.47;48.33;101403.38;5076316;28;803;-35
2021/08/14 05:40:31;;;;;;;;;;;;;;;21.17;49.45;101397.78;5076838;28;815;-33
2021/08/14 05:42:58;;;;;;;;;;;;;;;21.05;49.36;101404.16;5076933;28;831;-33
2021/08/14 05:45:23;;;;;;;;;;;;;;;20.79;49.86;101407.94;5075953;28;839;-34
2021/08/14 05:47:48;;;;;;;;;;;;;;;20.70;50.33;101406.03;5090842;28;1246;-32
2021/08/14 05:50:14;;;;;;;;;;;;;;;20.58;50.43;101407.00;5096699;28;1906;-33
2021/08/14 05:52:39;;;;;;;;;;;;;;;22.96;46.96;101406.81;5096486;28;822;-40
2021/08/14 05:55:04;;;;;;;;;;;;;;;24.62;43.11;101415.78;5096975;28;858;-41
2021/08/14 05:57:30;;;;;;;;;;;;;;;25.30;41.29;101408.28;5096683;28;663;-36
2021/08/14 05:59:55;;;;;;;;;;;;;;;25.58;42.13;101415.38;5096064;28;751;-42
2021/08/14 06:02:20;;;;;;;;;;;;;;;22.34;47.11;101405.91;5085782;28;1040;-42
2021/08/14 06:04:46;;;;;;;;;;;;;;;21.46;49.03;101407.03;5076478;28;738;-41
2021/08/14 06:07:11;;;;;;;;;;;;;;;20.99;50.22;101412.66;5075957;28;823;-41
2021/08/14 06:09:36;;;;;;;;;;;;;;;20.65;50.88;101408.22;5076389;28;1905;-32
2021/08/14 06:12:01;;;;;;;;;;;;;;;20.73;50.79;101410.25;5083298;28;1146;-32
2021/08/14 06:14:27;;;;;;;;;;;;;;;21.01;50.74;101400.88;5096099;28;794;-32
2021/08/14 06:16:52;;;;;;;;;;;;;;;22.91;48.59;101406.38;5089415;28;953;-41
2021/08/14 06:19:17;;;;;;;;;;;;;;;24.65;44.06;101413.66;5076223;28;827;-34
2021/08/14 06:21:42;;;;;;;;;;;;;;;25.37;41.37;101406.66;5075751;28;870;-34
2021/08/14 06:24:08;;;;;;;;;;;;;;;25.64;42.93;101404.88;5076439;28;787;-33
2021/08/14 06:26:33;;;;;;;;;;;;;;;22.43;47.11;101406.09;5075826;28;890;-33
2021/08/14 06:28:58;;;;;;;;;;;;;;;21.31;48.55;101401.13;5075736;28;859;-31
2021/08/14 06:31:24;;;;;;;;;;;;;;;22.34;46.61;101405.03;5078693;28;1905;-32
2021/08/14 06:33:49;;;;;;;;;;;;;;;22.83;44.96;101407.09;5096361;28;834;-32
2021/08/14 06:36:14;;;;;;;;;;;;;;;23.19;44.04;101404.72;5096183;28;779;-34
2021/08/14 06:38:39;;;;;;;;;;;;;;;22.96;44.33;101399.63;5096204;28;874;-34
2021/08/14 06:41:05;;;;;;;;;;;;;;;23.07;44.30;101395.13;5096213;28;807;-32
2021/08/14 06:43:30;;;;;;;;;;;;;;;24.30;43.35;101404.47;5096047;28;812;-35
2021/08/14 06:45:56;;;;;;;;;;;;;;;25.19;43.70;101399.41;5096474;28;782;-39
2021/08/14 06:48:21;;;;;;;;;;;;;;;25.67;39.84;101401.03;5078739;28;1531;-37
2021/08/14 06:50:46;;;;;;;;;;;;;;;25.72;40.83;101397.84;5084615;28;1918;-33
2021/08/14 06:53:12;;;;;;;;;;;;;;;23.99;42.13;101400.13;5087216;28;1268;-33
2021/08/14 06:55:37;;;;;;;;;;;;;;;23.30;42.04;101403.75;5092725;28;1181;-33
2021/08/14 06:58:02;;;;;;;;;;;;;;;23.14;41.85;101406.97;5095799;28;809;-33
2021/08/14 07:00:28;;;;;;;;;;;;;;;23.29;42.07;101403.91;5096098;28;858;-33
2021/08/14 07:02:54;;;;;;;;;;;;;;;23.42;41.71;101392.91;5080382;28;946;-35
2021/08/14 07:05:19;;;;;;;;;;;;;;;23.12;42.54;101398.25;5075630;28;879;-35
2021/08/14 07:07:44;;;;;;;;;;;;;;;23.28;42.28;101408.41;5075603;28;782;-42
2021/08/14 07:10:10;;;;;;;;;;;;;;;23.51;44.16;101409.97;5075799;28;1964;-32
2021/08/14 07:12:35;;;;;;;;;;;;;;;24.98;40.22;101415.88;5075910;28;1201;-34
2021/08/14 07:15:00;;;;;;;;;;;;;;;25.75;38.21;101403.78;5075788;28;819;-32
2021/08/14 07:17:26;;;;;;;;;;;;;;;26.14;37.43;101412.44;5086795;28;899;-34
2021/08/14 07:19:51;;;;;;;;;;;;;;;25.39;36.67;101407.31;5076502;28;1131;-33
2021/08/14 07:22:17;;;;;;;;;;;;;;;24.54;36.94;101411.97;5076800;28;839;-34
2021/08/14 07:24:42;;;;;;;;;;;;;;;23.80;37.85;101411.78;5096380;28;771;-33
2021/08/14 07:27:07;;;;;;;;;;;;;;;23.86;38.62;101413.91;5099465;28;839;-31
2021/08/14 07:29:32;;;;;;;;;;;;;;;24.00;38.50;101409.91;5098576;28;1972;-32
2021/08/14 07:31:58;;;;;;;;;;;;;;;24.56;37.35;101417.22;5091508;28;938;-32
2021/08/14 07:34:23;;;;;;;;;;;;;;;23.79;39.54;101402.88;5079019;28;878;-31
2021/08/14 07:36:49;;;;;;;;;;;;;;;24.75;37.33;101410.91;5078397;28;823;-34
2021/08/14 07:39:15;;;;;;;;;;;;;;;24.93;36.54;101412.78;5078728;28;862;-32
2021/08/14 07:41:40;;;;;;;;;;;;;;;24.80;36.55;101419.38;5079080;28;822;-31
2021/08/14 07:44:05;;;;;;;;;;;;;;;25.00;35.89;101416.56;5078382;28;826;-33
2021/08/14 07:46:31;;;;;;;;;;;;;;;25.00;35.81;101416.56;5083004;28;939;-34
2021/08/14 07:48:56;;;;;;;;;;;;;;;25.02;36.05;101411.91;5098568;28;1319;-32
2021/08/14 07:51:21;;;;;;;;;;;;;;;24.98;36.09;101412.31;5099033;28;1906;-32
2021/08/14 07:53:47;;;;;;;;;;;;;;;24.90;36.46;101407.69;5099218;28;842;-33
2021/08/14 07:56:12;;;;;;;;;;;;;;;25.00;36.47;101411.19;5098400;28;870;-33
2021/08/14 07:58:37;;;;;;;;;;;;;;;25.10;36.36;101410.25;5098512;28;810;-33
2021/08/14 08:01:02;;;;;;;;;;;;;;;25.08;36.84;101407.72;5098944;28;827;-34
2021/08/14 08:03:28;;;;;;;;;;;;;;;25.05;36.78;101406.19;5078408;28;839;-34
2021/08/14 08:05:53;;;;;;;;;;;;;;;25.37;36.19;101412.03;5078426;28;814;-34
2021/08/14 08:08:18;;;;;;;;;;;;;;;25.25;36.37;101405.19;5078260;28;845;-32
2021/08/14 08:10:44;;;;;;;;;;;;;;;25.25;35.82;101406.03;5078269;28;1901;-34
2021/08/14 08:13:09;;;;;;;;;;;;;;;24.55;37.79;101408.31;5095060;28;1179;-36
2021/08/14 08:15:34;;;;;;;;;;;;;;;24.89;36.84;101409.50;5099110;28;818;-43
2021/08/14 08:17:59;;;;;;;;;;;;;;;25.49;34.97;101412.63;5082091;28;934;-39
2021/08/14 08:20:25;;;;;;;;;;;;;;;25.08;36.01;101407.72;5077375;28;726;-33
2021/08/14 08:22:50;;;;;;;;;;;;;;;24.67;37.26;101405.41;5077119;28;843;-33
2021/08/14 08:25:16;;;;;;;;;;;;;;;24.85;37.39;101401.91;5078135;28;788;-33
2021/08/14 08:27:42;;;;;;;;;;;;;;;25.55;35.36;101397.69;5077954;28;806;-31
2021/08/14 08:30:08;;;;;;;;;;;;;;;25.37;35.33;101397.72;5078177;28;1953;-32
2021/08/14 08:32:34;;;;;;;;;;;;;;;24.98;36.27;101406.94;5090619;28;982;-37
2021/08/14 08:34:59;;;;;;;;;;;;;;;25.28;36.03;101394.09;5097871;28;755;-32
2021/08/14 08:37:24;;;;;;;;;;;;;;;25.65;34.54;101393.09;5097821;28;879;-33
2021/08/14 08:39:49;;;;;;;;;;;;;;;25.41;34.71;101391.00;5097796;28;780;-32
2021/08/14 08:42:15;;;;;;;;;;;;;;;25.47;34.67;101398.50;5097956;28;835;-33
2021/08/14 08:44:40;;;;;;;;;;;;;;;24.36;37.15;101400.34;5098180;28;820;-34
2021/08/14 08:47:06;;;;;;;;;;;;;;;24.76;36.38;101391.06;5088625;28;986;-42
2021/08/14 08:49:33;;;;;;;;;;;;;;;24.59;36.72;101398.09;5077213;28;1032;-33
2021/08/14 08:51:58;;;;;;;;;;;;;;;25.37;34.48;101389.66;5076594;28;1965;-32
2021/08/14 08:54:24;;;;;;;;;;;;;;;25.05;35.09;101390.06;5077213;28;902;-34
2021/08/14 08:56:49;;;;;;;;;;;;;;;24.88;35.66;101388.13;5077383;28;775;-34
2021/08/14 08:59:14;;;;;;;;;;;;;;;25.22;35.27;101375.88;5077156;28;783;-42
2021/08/14 09:01:40;;;;;;;;;;;;;;;25.39;35.15;101375.00;5082777;28;978;-33
2021/08/14 09:04:24;;;;;;;;;;;;;;;24.99;36.10;101381.75;5097291;28;920;-37
2021/08/14 09:06:49;;;;;;;;;;;;;;;25.25;37.35;101383.66;5097681;28;798;-33
2021/08/14 09:09:15;;;;;;;;;;;;;;;25.86;34.66;101381.09;5097075;28;886;-32
2021/08/14 09:11:48;;;;;;;;;;;;;;;25.16;35.41;101380.03;5092282;28;1901;-33
2021/08/14 09:14:13;;;;;;;;;;;;;;;24.39;36.04;101382.03;5077500;28;719;-32
2021/08/14 09:16:38;;;;;;;;;;;;;;;23.92;36.77;101375.69;5081958;28;820;-34
2021/08/14 09:19:03;;;;;;;;;;;;;;;23.71;38.23;101374.06;5097167;28;866;-41
2021/08/14 09:21:29;;;;;;;;;;;;;;;23.67;38.71;101375.31;5097297;28;775;-40
2021/08/14 09:23:54;;;;;;;;;;;;;;;23.91;38.16;101373.16;5097315;28;824;-32
2021/08/14 09:26:19;;;;;;;;;;;;;;;23.80;38.73;101374.19;5096904;28;768;-39
2021/08/14 09:28:45;;;;;;;;;;;;;;;23.16;40.15;101261.91;5095231;28;884;-36
2021/08/14 09:31:10;;;;;;;;;;;;;;;25.02;36.67;101374.22;5095942;28;1898;-36
2021/08/14 09:33:35;;;;;;;;;;;;;;;25.53;37.89;101379.00;5075115;28;1222;-42
2021/08/14 09:36:02;;;;;;;;;;;;;;;24.12;38.14;101374.78;5076831;28;787;-40
2021/08/14 09:38:45;;;;;;;;;;;;;;;23.84;38.74;101368.38;5076956;28;851;-30
2021/08/14 09:41:14;;;;;;;;;;;;;;;23.91;38.77;101362.41;5076714;28;822;-42
2021/08/14 09:43:40;;;;;;;;;;;;;;;24.16;38.35;101368.13;5076973;28;756;-39
2021/08/14 09:46:05;;;;;;;;;;;;;;;23.90;38.95;101364.25;5076741;28;938;-40
2021/08/14 09:48:31;;;;;;;;;;;;;;;23.95;39.36;101367.38;5095543;28;1150;-40
2021/08/14 09:50:56;;;;;;;;;;;;;;;25.16;36.56;101359.34;5096292;28;1914;-34
2021/08/14 09:53:22;;;;;;;;;;;;;;;25.68;37.90;101355.06;5097316;28;790;-34
2021/08/14 09:55:53;;;;;;;;;;;;;;;24.49;38.03;101357.78;5096213;28;803;-34
2021/08/14 09:58:24;;;;;;;;;;;;;;;24.23;38.29;101353.13;5095701;28;822;-35
2021/08/14 10:00:49;;;;;;;;;;;;;;;24.24;38.04;101343.22;5096945;28;823;-37
2021/08/14 10:03:15;;;;;;;;;;;;;;;24.33;37.90;101345.00;5076459;28;1021;-34
2021/08/14 10:05:41;;;;;;;;;;;;;;;23.93;38.36;101355.91;5076593;28;854;-33
2021/08/14 10:08:06;;;;;;;;;;;;;;;24.22;37.98;101351.44;5076628;28;805;-34
2021/08/14 10:10:32;;;;;;;;;;;;;;;24.96;36.09;101350.56;5074148;28;1973;-39
2021/08/14 10:12:57;;;;;;;;;;;;;;;25.46;33.82;101337.53;5091630;28;1123;-31
2021/08/14 10:15:22;;;;;;;;;;;;;;;25.12;36.35;101338.28;5096388;28;767;-33
2021/08/14 10:17:48;;;;;;;;;;;;;;;24.11;37.83;101346.22;5080876;28;906;-35
2021/08/14 10:20:13;;;;;;;;;;;;;;;23.83;38.12;101355.06;5075105;28;795;-40
2021/08/14 10:22:38;;;;;;;;;;;;;;;23.83;39.96;101345.19;5076630;28;866;-35
2021/08/14 10:25:04;;;;;;;;;;;;;;;24.99;34.89;101336.81;5075039;28;776;-37
2021/08/14 10:27:29;;;;;;;;;;;;;;;24.35;37.60;101334.97;5074231;28;933;-35
2021/08/14 10:29:56;;;;;;;;;;;;;;;23.74;38.49;101327.25;5074630;28;1961;-36
2021/08/14 10:32:31;;;;;;;;;;;;;;;23.91;39.73;101325.63;5075728;28;958;-39
2021/08/14 10:35:11;;;;;;;;;;;;;;;25.12;34.58;101317.59;5075904;28;833;-38
2021/08/14 10:37:38;;;;;;;;;;;;;;;24.45;37.02;101319.63;5076194;28;875;-33
2021/08/14 10:40:03;;;;;;;;;;;;;;;24.39;37.34;101317.50;5075877;28;799;-38
2021/08/14 10:42:53;;;;;;;;;;;;;;;23.78;38.54;101320.59;5075524;28;983;-34
2021/08/14 10:45:19;;;;;;;;;;;;;;;24.48;36.87;101306.84;5075995;28;851;-32
2021/08/14 10:47:45;;;;;;;;;;;;;;;25.37;33.77;101306.16;5089866;28;1014;-38
2021/08/14 10:50:29;;;;;;;;;;;;;;;24.64;37.10;101307.03;5096285;28;1967;-40
2021/08/14 10:52:54;;;;;;;;;;;;;;;24.24;38.14;101314.47;5096055;28;901;-34
2021/08/14 10:55:20;;;;;;;;;;;;;;;24.53;37.79;101304.56;5094186;28;1459;-33
2021/08/14 10:57:46;;;;;;;;;;;;;;;24.54;41.95;101317.03;5095374;28;1210;-34
2021/08/14 11:00:15;;;;;;;;;;;;;;;24.76;42.45;101315.72;5097648;28;815;-35
2021/08/14 11:02:59;;;;;;;;;;;;;;;24.53;42.72;101318.84;5085919;28;1013;-35
2021/08/14 11:05:25;;;;;;;;;;;;;;;24.36;41.83;101314.31;5079810;28;755;-35
2021/08/14 11:07:50;;;;;;;;;;;;;;;24.87;41.02;101313.81;5079339;28;803;-35
2021/08/14 11:10:16;;;;;;;;;;;;;;;25.31;39.57;101313.84;5077734;28;1897;-35
2021/08/14 11:12:42;;;;;;;;;;;;;;;25.25;39.96;101314.50;5092056;28;1063;-36
2021/08/14 11:15:23;;;;;;;;;;;;;;;25.24;40.07;101304.72;5100208;28;743;-34
2021/08/14 11:17:52;;;;;;;;;;;;;;;25.35;40.03;101308.16;5084429;28;997;-38
2021/08/14 11:20:20;;;;;;;;;;;;;;;25.01;40.28;101317.81;5078987;28;795;-34
2021/08/14 11:22:46;;;;;;;;;;;;;;;25.24;40.22;101303.88;5079057;28;854;-36
2021/08/14 11:25:29;;;;;;;;;;;;;;;25.10;40.41;101310.66;5079048;28;1051;-32
2021/08/14 11:27:58;;;;;;;;;;;;;;;25.29;40.05;101315.03;5079626;28;816;-38
2021/08/14 11:30:26;;;;;;;;;;;;;;;25.45;39.43;101314.28;5079323;28;1894;-41
2021/08/14 11:32:51;;;;;;;;;;;;;;;25.46;39.95;101310.59;5093339;28;1022;-41
2021/08/14 11:35:17;;;;;;;;;;;;;;;25.50;39.98;101325.44;5099241;28;802;-36
2021/08/14 11:37:52;;;;;;;;;;;;;;;25.55;39.92;101298.88;5099549;28;759;-41
2021/08/14 11:40:21;;;;;;;;;;;;;;;25.45;39.71;101306.22;5099147;28;756;-36
2021/08/14 11:43:12;;;;;;;;;;;;;;;25.55;39.38;101300.72;5099280;28;804;-36
2021/08/14 11:45:38;;;;;;;;;;;;;;;25.49;39.50;101294.09;5095581;28;1346;-37
2021/08/14 11:48:05;;;;;;;;;;;;;;;24.64;41.22;101285.50;5081173;28;1226;-33
2021/08/14 11:50:33;;;;;;;;;;;;;;;24.77;40.93;101298.59;5078592;28;1965;-34
2021/08/14 11:52:58;;;;;;;;;;;;;;;24.63;41.28;101296.41;5078845;28;819;-33
2021/08/14 11:55:24;;;;;;;;;;;;;;;24.63;41.39;101291.03;5078017;28;879;-36
2021/08/14 11:57:49;;;;;;;;;;;;;;;24.83;41.29;101295.28;5078814;28;792;-38
2021/08/14 12:00:18;;;;;;;;;;;;;;;25.14;42.25;101282.44;5078279;28;1001;-37
2021/08/14 12:02:46;;;;;;;;;;;;;;;26.25;39.52;101296.19;5091845;28;1014;-37
2021/08/14 12:05:11;;;;;;;;;;;;;;;24.76;40.64;101290.66;5099054;28;795;-40
2021/08/14 12:07:37;;;;;;;;;;;;;;;23.99;41.57;101295.34;5098802;28;751;-37
2021/08/14 12:10:02;;;;;;;;;;;;;;;24.36;42.38;101285.56;5097968;28;1894;-41
2021/08/14 12:12:29;;;;;;;;;;;;;;;24.39;41.98;101292.50;5084544;28;1205;-33
2021/08/14 12:14:55;;;;;;;;;;;;;;;24.43;42.44;101294.72;5078474;28;818;-41
2021/08/14 12:17:20;;;;;;;;;;;;;;;24.59;42.30;101293.19;5088552;28;955;-40
2021/08/14 12:19:46;;;;;;;;;;;;;;;24.69;42.74;101291.25;5098706;28;816;-35
2021/08/14 12:22:13;;;;;;;;;;;;;;;25.88;40.29;101283.91;5098853;28;816;-39
2021/08/14 12:24:39;;;;;;;;;;;;;;;25.53;40.26;101275.78;5098052;28;746;-36
2021/08/14 12:27:21;;;;;;;;;;;;;;;24.52;40.78;101275.97;5098577;28;855;-38
2021/08/14 12:29:46;;;;;;;;;;;;;;;23.75;42.23;101274.38;5098448;28;1894;-40
2021/08/14 12:32:11;;;;;;;;;;;;;;;23.75;41.97;101272.53;5087926;28;943;-41
2021/08/14 12:34:36;;;;;;;;;;;;;;;24.34;42.33;101277.63;5076798;28;982;-40
2021/08/14 12:37:05;;;;;;;;;;;;;;;24.45;42.13;101273.03;5077949;28;846;-40
2021/08/14 12:39:43;;;;;;;;;;;;;;;24.16;42.56;101280.28;5077764;28;830;-39
2021/08/14 12:42:18;;;;;;;;;;;;;;;24.17;42.57;101271.22;5077781;28;819;-32
2021/08/14 12:44:44;;;;;;;;;;;;;;;23.84;43.21;101276.16;5077622;28;739;-40
2021/08/14 12:47:09;;;;;;;;;;;;;;;25.44;41.16;101277.59;5086398;28;1182;-34
2021/08/14 12:49:34;;;;;;;;;;;;;;;25.26;41.12;101266.84;5098199;28;785;-33